createdAt,value
2022-08-17T03:52:30.263Z,21.14
2022-08-17T03:55:51.379Z,21.22
2022-08-17T03:58:56.828Z,21.39
2022-08-17T04:02:05.146Z,21.46
2022-08-17T04:05:08.477Z,21.69
2022-08-17T04:08:11.791Z,21.60
2022-08-17T04:11:15.004Z,21.69
2022-08-17T04:14:17.847Z,21.82
2022-08-17T04:17:23.857Z,21.93
2022-08-17T04:20:34.497Z,22.00
2022-08-17T04:23:38.672Z,22.28
2022-08-17T04:26:52.047Z,22.63
2022-08-17T04:29:58.527Z,22.65
2022-08-17T04:33:08.674Z,23.19
2022-08-17T04:36:14.120Z,23.22
2022-08-17T04:39:16.914Z,23.50
2022-08-17T04:42:22.007Z,23.59
2022-08-17T04:45:24.650Z,23.84
2022-08-17T04:48:35.980Z,23.90
2022-08-17T04:51:54.529Z,24.31
2022-08-17T04:55:04.258Z,24.40
2022-08-17T04:58:07.828Z,24.02
2022-08-17T05:01:10.980Z,24.24
2022-08-17T05:04:26.892Z,24.77
2022-08-17T05:07:37.565Z,24.66
2022-08-17T05:10:45.520Z,24.84
2022-08-17T05:13:50.366Z,25.46
2022-08-17T05:16:53.092Z,25.58
2022-08-17T05:19:56.004Z,26.10
2022-08-17T05:23:02.139Z,26.53
2022-08-17T05:26:06.294Z,26.70
2022-08-17T05:29:12.325Z,26.66
2022-08-17T05:32:38.735Z,27.14
2022-08-17T05:35:40.354Z,27.04
2022-08-17T05:38:43.778Z,26.95
2022-08-17T05:41:47.944Z,27.16
2022-08-17T05:44:50.972Z,27.71
2022-08-17T05:47:53.981Z,28.11
2022-08-17T05:51:09.910Z,28.19
2022-08-17T05:54:25.674Z,28.30
2022-08-17T05:57:53.886Z,28.38
2022-08-17T06:01:12.187Z,28.59
2022-08-17T06:04:18.287Z,28.80
2022-08-17T06:07:29.593Z,29.17
2022-08-17T06:10:35.850Z,29.19
2022-08-17T06:13:47.921Z,29.78
2022-08-17T06:17:01.017Z,29.48
2022-08-17T06:20:10.704Z,30.05
2022-08-17T06:23:43.370Z,30.29
2022-08-17T07:35:51.234Z,33.28
2022-08-17T07:38:58.254Z,33.54
2022-08-17T07:42:05.274Z,33.57
2022-08-17T07:45:28.494Z,33.48
2022-08-17T07:48:36.429Z,33.24
2022-08-17T07:51:55.661Z,33.33
2022-08-17T07:59:43.191Z,34.36
2022-08-17T08:06:23.859Z,34.07
2022-08-17T08:10:00.893Z,34.52
2022-08-17T08:13:23.553Z,34.39
2022-08-17T08:16:29.764Z,34.97
2022-08-17T08:19:34.055Z,34.85
2022-08-17T08:23:03.258Z,35.07
2022-08-17T08:26:37.511Z,34.98
2022-08-17T08:30:08.134Z,35.82
2022-08-17T08:37:24.932Z,36.63
2022-08-17T08:40:41.572Z,35.84
2022-08-17T08:44:59.822Z,35.98
2022-08-17T08:48:52.835Z,36.07
2022-08-17T08:52:03.513Z,35.44
2022-08-17T08:55:14.974Z,35.98
2022-08-17T08:59:21.869Z,36.14
2022-08-17T09:03:52.801Z,36.12
2022-08-17T09:07:38.534Z,36.87
2022-08-17T09:11:07.216Z,37.07
2022-08-17T09:14:21.020Z,36.27
2022-08-17T09:19:01.562Z,37.07
2022-08-17T09:31:56.877Z,37.01
2022-08-17T09:35:06.115Z,37.01
2022-08-17T09:43:36.537Z,36.13
2022-08-17T09:46:53.712Z,38.01
2022-08-17T09:50:15.774Z,37.82
2022-08-17T09:53:18.527Z,37.30
2022-08-17T09:56:24.273Z,36.67
2022-08-17T10:00:31.292Z,36.14
2022-08-17T10:03:58.929Z,36.18
2022-08-17T10:29:48.602Z,36.20
2022-08-17T10:32:57.424Z,37.79
2022-08-17T10:36:19.623Z,38.69
2022-08-17T10:39:50.413Z,37.80
2022-08-17T10:43:20.750Z,38.35
2022-08-17T10:50:49.571Z,38.24
2022-08-17T10:54:01.276Z,38.29
2022-08-17T10:57:28.215Z,36.83
2022-08-17T11:00:41.547Z,36.85
2022-08-17T11:03:57.469Z,38.07
2022-08-17T11:07:29.326Z,36.86
2022-08-17T11:10:58.661Z,38.07
2022-08-17T11:14:24.031Z,38.89
2022-08-17T11:17:41.442Z,39.42
2022-08-17T11:21:00.057Z,38.89
2022-08-17T11:24:24.257Z,38.77
2022-08-17T11:27:33.208Z,38.33
2022-08-17T11:30:59.525Z,37.06
2022-08-17T11:34:19.805Z,36.65
2022-08-17T11:37:45.527Z,35.87
2022-08-17T11:41:29.707Z,36.27
2022-08-17T11:44:55.189Z,36.75
2022-08-17T11:48:28.420Z,37.83
2022-08-17T11:52:01.322Z,38.03
2022-08-17T11:55:33.968Z,36.85
2022-08-17T11:58:37.922Z,36.59
2022-08-17T12:01:56.789Z,36.16
2022-08-17T12:05:04.665Z,36.48
2022-08-17T12:08:16.009Z,35.95
2022-08-17T12:11:55.542Z,37.07
2022-08-17T12:15:10.193Z,36.95
2022-08-17T12:18:35.566Z,35.70
2022-08-17T12:22:11.125Z,36.03
2022-08-17T12:26:30.718Z,36.18
2022-08-17T12:30:00.657Z,36.74
2022-08-17T12:33:25.419Z,37.28
2022-08-17T12:40:29.425Z,36.98
2022-08-17T12:43:53.519Z,35.81
2022-08-17T12:47:07.967Z,35.17
2022-08-17T12:50:28.588Z,35.66
2022-08-17T13:03:06.159Z,34.68
2022-08-17T13:10:57.065Z,35.20
2022-08-17T13:14:19.811Z,35.31
2022-08-17T13:18:28.282Z,35.36
2022-08-17T13:25:03.820Z,35.43
2022-08-17T13:28:18.666Z,34.77
2022-08-17T13:31:52.206Z,34.98
2022-08-17T13:35:13.781Z,35.00
2022-08-17T13:38:39.477Z,35.63
2022-08-17T13:41:45.225Z,35.69
2022-08-17T13:44:49.964Z,35.67
2022-08-17T13:48:16.581Z,34.94
2022-08-17T13:51:29.151Z,35.27
2022-08-17T13:54:35.484Z,35.48
2022-08-17T13:57:38.162Z,34.79
2022-08-17T14:00:41.657Z,34.63
2022-08-17T14:03:44.510Z,34.73
2022-08-17T14:07:02.074Z,35.01
2022-08-17T14:10:20.260Z,35.33
2022-08-17T14:13:42.913Z,35.15
2022-08-17T14:16:45.927Z,35.61
2022-08-17T14:19:50.946Z,35.02
2022-08-17T14:22:59.252Z,34.83
2022-08-17T14:26:02.162Z,35.52
2022-08-17T14:29:05.317Z,35.37
2022-08-17T14:32:22.172Z,35.08
2022-08-17T14:35:27.848Z,35.17
2022-08-17T14:38:30.536Z,35.18
2022-08-17T14:41:33.601Z,34.33
2022-08-17T14:44:37.048Z,34.92
2022-08-17T14:47:41.426Z,34.90
2022-08-17T14:50:46.133Z,34.63
2022-08-17T14:53:50.208Z,34.76
2022-08-17T14:57:04.620Z,35.04
2022-08-17T15:00:19.560Z,35.07
2022-08-17T15:03:23.869Z,34.76
2022-08-17T15:06:27.061Z,34.94
2022-08-17T15:09:31.475Z,34.52
2022-08-17T15:12:46.930Z,34.90
2022-08-17T15:15:50.383Z,34.70
2022-08-17T15:19:22.997Z,34.38
2022-08-17T15:22:27.539Z,34.52
2022-08-17T15:25:32.964Z,34.64
2022-08-17T15:28:35.766Z,34.12
2022-08-17T15:31:44.830Z,34.35
2022-08-17T15:34:47.653Z,34.42
2022-08-17T15:37:52.207Z,34.51
2022-08-17T15:40:57.595Z,34.31
2022-08-17T15:44:09.783Z,34.07
2022-08-17T15:47:18.578Z,33.99
2022-08-17T15:50:22.554Z,34.01
2022-08-17T15:53:25.229Z,34.03
2022-08-17T15:56:29.060Z,34.13
2022-08-17T15:59:31.840Z,34.16
2022-08-17T16:03:44.585Z,33.95
2022-08-17T16:06:00.514Z,33.91
2022-08-17T16:09:06.614Z,34.00
2022-08-17T16:12:16.740Z,33.86
2022-08-17T16:15:19.471Z,33.78
2022-08-17T16:18:25.581Z,33.74
2022-08-17T16:21:39.321Z,33.70
2022-08-17T16:24:57.106Z,33.67
2022-08-17T16:28:07.829Z,33.55
2022-08-17T16:31:14.945Z,33.62
2022-08-17T16:34:19.042Z,33.47
2022-08-17T16:37:22.203Z,33.45
2022-08-17T16:40:29.632Z,33.37
2022-08-17T16:43:34.861Z,33.28
2022-08-17T16:46:40.673Z,33.21
2022-08-17T16:49:50.443Z,33.21
2022-08-17T16:53:07.732Z,33.10
2022-08-17T16:56:10.670Z,32.99
2022-08-17T16:59:30.236Z,33.01
2022-08-17T17:02:37.741Z,32.98
2022-08-17T17:06:03.698Z,32.84
2022-08-17T17:09:14.260Z,32.70
2022-08-17T17:12:19.026Z,32.58
2022-08-17T17:16:07.112Z,32.53
2022-08-17T17:19:12.018Z,32.53
2022-08-17T17:22:17.773Z,32.51
2022-08-17T17:25:51.419Z,32.33
2022-08-17T17:29:16.346Z,32.18
2022-08-17T17:32:32.592Z,32.05
2022-08-17T17:36:05.129Z,31.97
2022-08-17T17:39:17.364Z,31.96
2022-08-17T17:42:26.977Z,31.86
2022-08-17T17:46:27.942Z,31.67
2022-08-17T17:49:39.413Z,31.63
2022-08-17T17:52:50.598Z,31.44
2022-08-17T17:56:19.664Z,31.26
2022-08-17T18:00:02.450Z,31.17
2022-08-17T18:03:50.850Z,30.98
2022-08-17T18:07:26.029Z,30.88
2022-08-17T18:10:56.925Z,30.74
2022-08-17T18:14:21.418Z,30.70
2022-08-17T18:17:24.445Z,30.51
2022-08-17T18:20:36.031Z,30.49
2022-08-17T18:24:10.882Z,30.47
2022-08-17T18:27:36.968Z,30.57
2022-08-17T18:31:10.636Z,30.71
2022-08-17T18:34:45.858Z,30.40
2022-08-17T18:37:56.047Z,30.35
2022-08-17T18:41:37.315Z,30.27
2022-08-17T18:44:39.902Z,30.14
2022-08-17T18:47:57.728Z,30.15
2022-08-17T18:51:26.366Z,30.02
2022-08-17T18:55:08.935Z,29.89
2022-08-17T18:58:24.182Z,29.80
2022-08-17T19:01:53.800Z,29.58
2022-08-17T19:05:17.117Z,29.54
2022-08-17T19:08:29.822Z,29.59
2022-08-17T19:11:35.722Z,29.45
2022-08-17T19:14:44.363Z,29.01
2022-08-17T19:17:55.410Z,28.90
2022-08-17T19:21:06.688Z,28.72
2022-08-17T19:24:21.798Z,28.54
2022-08-17T19:27:41.776Z,28.49
2022-08-17T19:30:57.528Z,28.50
2022-08-17T19:34:02.088Z,28.62
2022-08-17T19:37:32.526Z,28.53
2022-08-17T19:41:11.661Z,28.45
2022-08-17T19:44:21.047Z,28.57
2022-08-17T19:47:54.415Z,28.51
2022-08-17T19:51:05.419Z,28.49
2022-08-17T19:54:24.860Z,28.48
2022-08-17T19:58:00.735Z,28.43
2022-08-17T20:01:17.873Z,28.46
2022-08-17T20:04:31.803Z,28.42
2022-08-17T20:07:38.233Z,28.37
2022-08-17T20:10:48.143Z,28.34
2022-08-17T20:14:14.810Z,28.27
2022-08-17T20:17:18.126Z,28.32
2022-08-17T20:21:09.317Z,28.13
2022-08-17T20:25:29.937Z,27.99
2022-08-17T20:28:36.055Z,27.97
2022-08-17T20:31:59.331Z,28.11
2022-08-17T20:35:27.115Z,28.03
2022-08-17T20:38:46.149Z,27.94
2022-08-17T20:42:11.065Z,27.98
2022-08-17T20:45:26.296Z,27.94
2022-08-17T20:48:38.321Z,27.88
2022-08-17T20:52:36.213Z,27.87
2022-08-17T20:55:51.304Z,27.88
2022-08-17T20:58:55.577Z,27.85
2022-08-17T21:02:18.067Z,27.88
2022-08-17T21:06:04.827Z,27.77
2022-08-17T21:09:29.991Z,27.56
2022-08-17T21:12:48.148Z,27.72
2022-08-17T21:15:59.571Z,27.47
2022-08-17T21:20:10.857Z,27.37
2022-08-17T21:23:42.497Z,27.35
2022-08-17T21:27:07.282Z,27.58
2022-08-17T21:30:33.748Z,27.47
2022-08-17T21:33:39.614Z,27.18
2022-08-17T21:36:47.136Z,26.94
2022-08-17T21:39:53.442Z,26.77
2022-08-17T21:43:27.517Z,26.57
2022-08-17T21:46:36.928Z,26.71
2022-08-17T21:49:40.215Z,26.43
2022-08-17T21:52:43.674Z,26.19
2022-08-17T21:55:50.304Z,26.23
2022-08-17T21:59:19.921Z,26.21
2022-08-17T22:02:31.864Z,26.15
2022-08-17T22:05:39.971Z,26.06
2022-08-17T22:08:43.197Z,25.95
2022-08-17T22:11:52.722Z,25.76
2022-08-17T22:15:07.482Z,25.76
2022-08-17T22:18:19.647Z,25.67
2022-08-17T22:21:22.619Z,25.49
2022-08-17T22:24:28.074Z,25.55
2022-08-17T22:28:04.220Z,25.41
2022-08-17T22:31:10.469Z,25.03
2022-08-17T22:34:17.643Z,24.77
2022-08-17T22:37:29.071Z,25.30
2022-08-17T22:40:34.529Z,24.75
2022-08-17T22:43:38.909Z,24.85
2022-08-17T22:47:23.098Z,24.93
2022-08-17T22:50:29.218Z,24.73
2022-08-17T22:53:50.723Z,24.79
2022-08-17T22:57:19.685Z,24.85
2022-08-17T23:00:41.150Z,24.85
2022-08-17T23:03:54.563Z,24.99
2022-08-17T23:06:57.372Z,24.69
2022-08-17T23:10:02.224Z,24.57
2022-08-17T23:13:05.074Z,24.65
2022-08-17T23:16:07.987Z,24.67
2022-08-17T23:19:18.477Z,24.85
2022-08-17T23:22:21.791Z,24.81
2022-08-17T23:25:30.156Z,24.87
2022-08-17T23:28:37.407Z,24.88
2022-08-17T23:31:40.576Z,24.95
2022-08-17T23:34:45.078Z,24.98
2022-08-17T23:37:47.787Z,25.27
2022-08-17T23:40:50.823Z,25.28
2022-08-17T23:43:53.738Z,25.12
2022-08-17T23:46:57.030Z,24.67
2022-08-17T23:50:01.610Z,24.60
2022-08-17T23:53:06.483Z,24.66
2022-08-17T23:56:11.269Z,24.44
2022-08-17T23:59:16.095Z,24.34
